sensor_id;sensor_type;location;lat;lon;timestamp;pressure;altitude;pressure_sealevel;temperature;humidity
43364;BME280;40636;52.424;-1.948;2022-09-24T00:01:35;100025.06;;;10.14;100.00
43364;BME280;40636;52.424;-1.948;2022-09-24T00:04:07;100034.94;;;10.15;100.00
43364;BME280;40636;52.424;-1.948;2022-09-24T00:06:40;100038.88;;;10.08;100.00
43364;BME280;40636;52.424;-1.948;2022-09-24T00:09:08;100034.50;;;10.07;100.00
43364;BME280;40636;52.424;-1.948;2022-09-24T00:11:35;100029.94;;;10.12;100.00
43364;BME280;40636;52.424;-1.948;2022-09-24T00:14:02;100035.28;;;10.19;100.00
43364;BME280;40636;52.424;-1.948;2022-09-24T00:16:29;100030.28;;;10.16;100.00
43364;BME280;40636;52.424;-1.948;2022-09-24T00:19:00;100028.22;;;10.23;100.00
43364;BME280;40636;52.424;-1.948;2022-09-24T00:21:30;100026.91;;;10.26;100.00
43364;BME280;40636;52.424;-1.948;2022-09-24T00:24:04;100028.09;;;10.30;100.00
43364;BME280;40636;52.424;-1.948;2022-09-24T00:26:31;100032.28;;;10.32;100.00
43364;BME280;40636;52.424;-1.948;2022-09-24T00:29:24;100022.03;;;10.28;100.00
43364;BME280;40636;52.424;-1.948;2022-09-24T00:31:52;100022.88;;;10.28;100.00
43364;BME280;40636;52.424;-1.948;2022-09-24T00:34:19;100021.22;;;10.27;100.00
43364;BME280;40636;52.424;-1.948;2022-09-24T00:36:47;100018.09;;;10.24;100.00
43364;BME280;40636;52.424;-1.948;2022-09-24T00:39:14;100018.81;;;10.19;100.00
43364;BME280;40636;52.424;-1.948;2022-09-24T00:41:42;100020.03;;;10.11;100.00
43364;BME280;40636;52.424;-1.948;2022-09-24T00:46:59;100019.47;;;10.09;100.00
43364;BME280;40636;52.424;-1.948;2022-09-24T00:49:26;100027.59;;;10.04;100.00
43364;BME280;40636;52.424;-1.948;2022-09-24T00:51:53;100017.69;;;10.03;100.00
43364;BME280;40636;52.424;-1.948;2022-09-24T00:54:23;100019.28;;;9.99;100.00
43364;BME280;40636;52.424;-1.948;2022-09-24T00:56:52;100022.50;;;9.96;100.00
43364;BME280;40636;52.424;-1.948;2022-09-24T00:59:22;100018.44;;;9.99;100.00
43364;BME280;40636;52.424;-1.948;2022-09-24T01:01:50;100017.03;;;9.96;100.00
43364;BME280;40636;52.424;-1.948;2022-09-24T01:04:26;100019.03;;;10.01;100.00
43364;BME280;40636;52.424;-1.948;2022-09-24T01:06:53;100015.94;;;9.97;100.00
43364;BME280;40636;52.424;-1.948;2022-09-24T01:09:23;100019.78;;;9.96;100.00
43364;BME280;40636;52.424;-1.948;2022-09-24T01:11:58;100017.38;;;10.00;100.00
43364;BME280;40636;52.424;-1.948;2022-09-24T01:18:03;100017.88;;;9.85;100.00
43364;BME280;40636;52.424;-1.948;2022-09-24T01:20:49;100013.97;;;9.81;100.00
43364;BME280;40636;52.424;-1.948;2022-09-24T01:26:50;100015.56;;;9.77;100.00
43364;BME280;40636;52.424;-1.948;2022-09-24T01:34:52;100012.22;;;9.75;100.00
43364;BME280;40636;52.424;-1.948;2022-09-24T01:37:22;100001.16;;;9.70;100.00
43364;BME280;40636;52.424;-1.948;2022-09-24T01:39:53;99998.50;;;9.75;100.00
43364;BME280;40636;52.424;-1.948;2022-09-24T01:42:22;99990.78;;;9.72;100.00
43364;BME280;40636;52.424;-1.948;2022-09-24T01:44:53;100003.53;;;9.66;100.00
43364;BME280;40636;52.424;-1.948;2022-09-24T01:47:28;100002.50;;;9.55;100.00
43364;BME280;40636;52.424;-1.948;2022-09-24T01:50:00;99993.59;;;9.48;100.00
43364;BME280;40636;52.424;-1.948;2022-09-24T01:52:32;99999.78;;;9.44;100.00
43364;BME280;40636;52.424;-1.948;2022-09-24T01:55:02;99996.59;;;9.35;100.00
43364;BME280;40636;52.424;-1.948;2022-09-24T01:57:36;100002.69;;;9.25;100.00
43364;BME280;40636;52.424;-1.948;2022-09-24T02:00:16;99993.53;;;9.31;100.00
43364;BME280;40636;52.424;-1.948;2022-09-24T02:02:48;99996.13;;;9.38;100.00
43364;BME280;40636;52.424;-1.948;2022-09-24T02:05:31;99995.16;;;9.44;100.00
43364;BME280;40636;52.424;-1.948;2022-09-24T02:11:06;100002.63;;;9.49;100.00
43364;BME280;40636;52.424;-1.948;2022-09-24T02:13:38;99998.38;;;9.41;100.00
43364;BME280;40636;52.424;-1.948;2022-09-24T02:16:10;99998.41;;;9.29;100.00
43364;BME280;40636;52.424;-1.948;2022-09-24T02:18:44;99998.53;;;9.23;100.00
43364;BME280;40636;52.424;-1.948;2022-09-24T02:21:14;99993.91;;;9.23;100.00
43364;BME280;40636;52.424;-1.948;2022-09-24T02:24:06;99998.03;;;9.26;100.00
43364;BME280;40636;52.424;-1.948;2022-09-24T02:26:33;99993.19;;;9.28;100.00
43364;BME280;40636;52.424;-1.948;2022-09-24T02:29:00;99992.66;;;9.31;100.00
43364;BME280;40636;52.424;-1.948;2022-09-24T02:31:42;99994.69;;;9.35;100.00
43364;BME280;40636;52.424;-1.948;2022-09-24T02:34:16;99992.44;;;9.32;100.00
43364;BME280;40636;52.424;-1.948;2022-09-24T02:36:51;99991.63;;;9.32;100.00
43364;BME280;40636;52.424;-1.948;2022-09-24T02:39:19;99999.94;;;9.37;100.00
43364;BME280;40636;52.424;-1.948;2022-09-24T02:41:47;99997.56;;;9.40;100.00
43364;BME280;40636;52.424;-1.948;2022-09-24T02:44:15;99998.28;;;9.36;100.00
43364;BME280;40636;52.424;-1.948;2022-09-24T02:46:43;99998.38;;;9.41;100.00
43364;BME280;40636;52.424;-1.948;2022-09-24T02:49:10;100007.78;;;9.45;100.00
43364;BME280;40636;52.424;-1.948;2022-09-24T02:51:37;100007.78;;;9.45;100.00
43364;BME280;40636;52.424;-1.948;2022-09-24T02:54:04;100008.50;;;9.40;100.00
43364;BME280;40636;52.424;-1.948;2022-09-24T02:56:31;100006.81;;;9.39;100.00
43364;BME280;40636;52.424;-1.948;2022-09-24T02:58:58;100004.91;;;9.40;100.00
43364;BME280;40636;52.424;-1.948;2022-09-24T03:01:25;100005.88;;;9.46;100.00
43364;BME280;40636;52.424;-1.948;2022-09-24T03:03:52;100006.09;;;9.44;100.00
43364;BME280;40636;52.424;-1.948;2022-09-24T03:06:19;100007.44;;;9.42;100.00
43364;BME280;40636;52.424;-1.948;2022-09-24T03:08:45;100004.09;;;9.39;100.00
43364;BME280;40636;52.424;-1.948;2022-09-24T03:11:12;100004.59;;;9.36;100.00
43364;BME280;40636;52.424;-1.948;2022-09-24T03:13:44;100000.88;;;9.31;100.00
43364;BME280;40636;52.424;-1.948;2022-09-24T03:16:11;100001.03;;;9.36;100.00
43364;BME280;40636;52.424;-1.948;2022-09-24T03:18:38;99999.22;;;9.30;100.00
43364;BME280;40636;52.424;-1.948;2022-09-24T03:21:07;99999.72;;;9.27;100.00
43364;BME280;40636;52.424;-1.948;2022-09-24T03:23:34;99991.50;;;9.27;100.00
43364;BME280;40636;52.424;-1.948;2022-09-24T03:26:01;99993.66;;;9.25;100.00
43364;BME280;40636;52.424;-1.948;2022-09-24T03:28:28;99998.75;;;9.21;100.00
43364;BME280;40636;52.424;-1.948;2022-09-24T03:30:55;99996.28;;;9.20;100.00
43364;BME280;40636;52.424;-1.948;2022-09-24T03:33:32;99993.53;;;9.20;100.00
43364;BME280;40636;52.424;-1.948;2022-09-24T03:36:18;100002.84;;;9.19;100.00
43364;BME280;40636;52.424;-1.948;2022-09-24T03:38:47;99998.78;;;9.09;100.00
43364;BME280;40636;52.424;-1.948;2022-09-24T03:41:15;99997.72;;;9.10;100.00
43364;BME280;40636;52.424;-1.948;2022-09-24T03:43:42;99996.41;;;9.01;100.00
43364;BME280;40636;52.424;-1.948;2022-09-24T03:46:10;99995.34;;;9.14;100.00
43364;BME280;40636;52.424;-1.948;2022-09-24T03:48:39;99994.50;;;9.13;100.00
43364;BME280;40636;52.424;-1.948;2022-09-24T03:51:11;99994.50;;;9.13;100.00
43364;BME280;40636;52.424;-1.948;2022-09-24T03:53:39;99994.00;;;9.17;100.00
43364;BME280;40636;52.424;-1.948;2022-09-24T03:56:06;100001.19;;;9.18;100.00
43364;BME280;40636;52.424;-1.948;2022-09-24T03:58:34;99997.34;;;9.19;100.00
43364;BME280;40636;52.424;-1.948;2022-09-24T04:01:05;99994.84;;;9.17;100.00
43364;BME280;40636;52.424;-1.948;2022-09-24T04:03:32;100003.78;;;9.24;100.00
43364;BME280;40636;52.424;-1.948;2022-09-24T04:05:59;100008.66;;;9.22;100.00
43364;BME280;40636;52.424;-1.948;2022-09-24T04:08:26;100003.53;;;9.26;100.00
43364;BME280;40636;52.424;-1.948;2022-09-24T04:10:53;100004.84;;;9.23;100.00
43364;BME280;40636;52.424;-1.948;2022-09-24T04:13:20;100001.88;;;9.25;100.00
43364;BME280;40636;52.424;-1.948;2022-09-24T04:15:47;100001.38;;;9.28;100.00
43364;BME280;40636;52.424;-1.948;2022-09-24T04:18:16;100011.63;;;9.32;100.00
43364;BME280;40636;52.424;-1.948;2022-09-24T04:20:43;100015.66;;;9.30;100.00
43364;BME280;40636;52.424;-1.948;2022-09-24T04:23:10;100014.47;;;9.37;100.00
43364;BME280;40636;52.424;-1.948;2022-09-24T04:25:37;100016.94;;;9.39;100.00
43364;BME280;40636;52.424;-1.948;2022-09-24T04:28:06;100018.38;;;9.42;100.00
43364;BME280;40636;52.424;-1.948;2022-09-24T04:30:33;100017.41;;;9.48;100.00
43364;BME280;40636;52.424;-1.948;2022-09-24T04:33:00;100017.66;;;9.46;100.00
43364;BME280;40636;52.424;-1.948;2022-09-24T04:35:29;100014.41;;;9.49;100.00
43364;BME280;40636;52.424;-1.948;2022-09-24T04:37:57;100011.09;;;9.47;100.00
43364;BME280;40636;52.424;-1.948;2022-09-24T04:40:25;100016.94;;;9.51;100.00
43364;BME280;40636;52.424;-1.948;2022-09-24T04:42:53;100017.41;;;9.48;100.00
43364;BME280;40636;52.424;-1.948;2022-09-24T04:45:20;100017.78;;;9.51;100.00
43364;BME280;40636;52.424;-1.948;2022-09-24T04:47:48;100021.22;;;9.58;100.00
43364;BME280;40636;52.424;-1.948;2022-09-24T04:50:22;100027.06;;;9.50;100.00
43364;BME280;40636;52.424;-1.948;2022-09-24T04:52:49;100017.78;;;9.51;100.00
43364;BME280;40636;52.424;-1.948;2022-09-24T04:55:16;100031.34;;;9.46;100.00
43364;BME280;40636;52.424;-1.948;2022-09-24T04:57:46;100031.94;;;9.48;100.00
43364;BME280;40636;52.424;-1.948;2022-09-24T05:00:15;100031.34;;;9.46;100.00
43364;BME280;40636;52.424;-1.948;2022-09-24T05:02:43;100025.16;;;9.39;100.00
43364;BME280;40636;52.424;-1.948;2022-09-24T05:05:11;100032.81;;;9.37;100.00
43364;BME280;40636;52.424;-1.948;2022-09-24T05:07:40;100033.28;;;9.34;100.00
43364;BME280;40636;52.424;-1.948;2022-09-24T05:10:07;100037.56;;;9.30;100.00
43364;BME280;40636;52.424;-1.948;2022-09-24T05:12:34;100036.88;;;9.23;100.00
43364;BME280;40636;52.424;-1.948;2022-09-24T05:15:02;100044.47;;;9.21;100.00
43364;BME280;40636;52.424;-1.948;2022-09-24T05:17:29;100047.09;;;9.15;100.00
43364;BME280;40636;52.424;-1.948;2022-09-24T05:19:56;100045.56;;;9.20;100.00
43364;BME280;40636;52.424;-1.948;2022-09-24T05:22:25;100048.06;;;9.09;100.00
43364;BME280;40636;52.424;-1.948;2022-09-24T05:24:56;100049.72;;;9.10;100.00
43364;BME280;40636;52.424;-1.948;2022-09-24T05:27:23;100051.75;;;9.03;100.00
43364;BME280;40636;52.424;-1.948;2022-09-24T05:29:49;100053.66;;;9.03;100.00
43364;BME280;40636;52.424;-1.948;2022-09-24T05:32:18;100048.06;;;8.98;100.00
43364;BME280;40636;52.424;-1.948;2022-09-24T05:34:46;100054.25;;;9.05;100.00
43364;BME280;40636;52.424;-1.948;2022-09-24T05:37:13;100058.41;;;9.07;100.00
43364;BME280;40636;52.424;-1.948;2022-09-24T05:39:40;100059.25;;;9.08;100.00
43364;BME280;40636;52.424;-1.948;2022-09-24T05:42:10;100061.16;;;9.07;100.00
43364;BME280;40636;52.424;-1.948;2022-09-24T05:44:40;100062.13;;;9.13;100.00
43364;BME280;40636;52.424;-1.948;2022-09-24T05:47:08;100061.88;;;9.03;100.00
43364;BME280;40636;52.424;-1.948;2022-09-24T05:49:35;100064.13;;;9.06;100.00
43364;BME280;40636;52.424;-1.948;2022-09-24T05:52:02;100070.91;;;9.03;100.00
43364;BME280;40636;52.424;-1.948;2022-09-24T05:54:29;100073.31;;;9.00;100.00
43364;BME280;40636;52.424;-1.948;2022-09-24T05:56:55;100073.19;;;9.06;100.00
43364;BME280;40636;52.424;-1.948;2022-09-24T05:59:22;100072.59;;;9.04;100.00
43364;BME280;40636;52.424;-1.948;2022-09-24T06:01:50;100077.47;;;9.14;100.00
43364;BME280;40636;52.424;-1.948;2022-09-24T06:04:17;100075.78;;;9.01;100.00
43364;BME280;40636;52.424;-1.948;2022-09-24T06:06:44;100083.41;;;8.99;100.00
43364;BME280;40636;52.424;-1.948;2022-09-24T06:09:11;100080.19;;;9.02;100.00
43364;BME280;40636;52.424;-1.948;2022-09-24T06:11:37;100083.53;;;9.04;100.00
43364;BME280;40636;52.424;-1.948;2022-09-24T06:14:06;100085.78;;;9.07;100.00
43364;BME280;40636;52.424;-1.948;2022-09-24T06:16:34;100087.22;;;8.98;100.00
43364;BME280;40636;52.424;-1.948;2022-09-24T06:19:01;100088.16;;;8.92;100.00
43364;BME280;40636;52.424;-1.948;2022-09-24T06:21:28;100089.25;;;8.91;100.00
43364;BME280;40636;52.424;-1.948;2022-09-24T06:23:55;100090.44;;;8.95;100.00
43364;BME280;40636;52.424;-1.948;2022-09-24T06:26:22;100094.13;;;9.01;100.00
43364;BME280;40636;52.424;-1.948;2022-09-24T06:28:51;100096.88;;;9.01;100.00
43364;BME280;40636;52.424;-1.948;2022-09-24T06:31:18;100091.13;;;9.02;100.00
43364;BME280;40636;52.424;-1.948;2022-09-24T06:33:45;100096.16;;;9.05;100.00
43364;BME280;40636;52.424;-1.948;2022-09-24T06:36:12;100102.09;;;9.02;100.00
43364;BME280;40636;52.424;-1.948;2022-09-24T06:38:38;100101.16;;;9.08;100.00
43364;BME280;40636;52.424;-1.948;2022-09-24T06:41:06;100104.47;;;9.10;100.00
43364;BME280;40636;52.424;-1.948;2022-09-24T06:43:34;100108.75;;;9.06;100.00
43364;BME280;40636;52.424;-1.948;2022-09-24T06:46:00;100096.97;;;9.06;100.00
43364;BME280;40636;52.424;-1.948;2022-09-24T06:48:29;100098.75;;;9.12;100.00
43364;BME280;40636;52.424;-1.948;2022-09-24T06:50:56;100106.63;;;9.20;100.00
43364;BME280;40636;52.424;-1.948;2022-09-24T06:53:23;100107.56;;;9.26;100.00
43364;BME280;40636;52.424;-1.948;2022-09-24T06:55:50;100107.94;;;9.29;100.00
43364;BME280;40636;52.424;-1.948;2022-09-24T06:58:19;100103.41;;;9.35;100.00
43364;BME280;40636;52.424;-1.948;2022-09-24T07:00:54;100120.66;;;9.35;100.00
43364;BME280;40636;52.424;-1.948;2022-09-24T07:03:25;100110.06;;;9.39;100.00
43364;BME280;40636;52.424;-1.948;2022-09-24T07:05:52;100119.84;;;9.47;100.00
43364;BME280;40636;52.424;-1.948;2022-09-24T07:08:19;100118.03;;;9.52;100.00
43364;BME280;40636;52.424;-1.948;2022-09-24T07:10:47;100122.59;;;9.58;100.00
43364;BME280;40636;52.424;-1.948;2022-09-24T07:13:15;100122.19;;;9.66;100.00
43364;BME280;40636;52.424;-1.948;2022-09-24T07:15:43;100123.88;;;9.68;100.00
43364;BME280;40636;52.424;-1.948;2022-09-24T07:18:10;100128.28;;;9.69;100.00
43364;BME280;40636;52.424;-1.948;2022-09-24T07:20:38;100126.84;;;9.66;100.00
43364;BME280;40636;52.424;-1.948;2022-09-24T07:23:10;100134.97;;;9.73;100.00
43364;BME280;40636;52.424;-1.948;2022-09-24T07:25:38;100126.69;;;9.84;100.00
43364;BME280;40636;52.424;-1.948;2022-09-24T07:28:10;100129.78;;;9.88;100.00
43364;BME280;40636;52.424;-1.948;2022-09-24T07:30:38;100133.13;;;9.90;99.90
43364;BME280;40636;52.424;-1.948;2022-09-24T07:33:05;100133.25;;;9.95;100.00
43364;BME280;40636;52.424;-1.948;2022-09-24T07:35:33;100142.41;;;10.01;97.63
43364;BME280;40636;52.424;-1.948;2022-09-24T07:38:04;100141.31;;;10.13;98.02
43364;BME280;40636;52.424;-1.948;2022-09-24T07:40:32;100139.00;;;10.22;96.24
43364;BME280;40636;52.424;-1.948;2022-09-24T07:42:59;100142.72;;;10.28;94.49
43364;BME280;40636;52.424;-1.948;2022-09-24T07:45:27;100142.81;;;10.33;95.02
43364;BME280;40636;52.424;-1.948;2022-09-24T07:48:04;100144.47;;;10.34;94.73
43364;BME280;40636;52.424;-1.948;2022-09-24T07:50:37;100142.19;;;10.43;93.25
43364;BME280;40636;52.424;-1.948;2022-09-24T07:53:04;100140.63;;;10.47;92.96
43364;BME280;40636;52.424;-1.948;2022-09-24T07:55:32;100143.31;;;10.58;91.72
43364;BME280;40636;52.424;-1.948;2022-09-24T07:58:08;100141.50;;;10.64;91.66
43364;BME280;40636;52.424;-1.948;2022-09-24T08:00:36;100147.81;;;10.64;89.32
43364;BME280;40636;52.424;-1.948;2022-09-24T08:03:03;100143.84;;;10.72;90.18
43364;BME280;40636;52.424;-1.948;2022-09-24T08:05:30;100154.09;;;10.77;87.47
43364;BME280;40636;52.424;-1.948;2022-09-24T08:07:58;100150.72;;;10.75;85.57
43364;BME280;40636;52.424;-1.948;2022-09-24T08:10:26;100156.19;;;10.86;85.02
43364;BME280;40636;52.424;-1.948;2022-09-24T08:12:53;100146.59;;;10.89;84.46
43364;BME280;40636;52.424;-1.948;2022-09-24T08:15:22;100156.84;;;10.93;84.80
43364;BME280;40636;52.424;-1.948;2022-09-24T08:17:49;100156.78;;;11.05;83.88
43364;BME280;40636;52.424;-1.948;2022-09-24T08:20:16;100164.25;;;11.10;81.47
43364;BME280;40636;52.424;-1.948;2022-09-24T08:22:43;100162.84;;;11.07;83.19
43364;BME280;40636;52.424;-1.948;2022-09-24T08:25:10;100173.25;;;11.05;82.55
43364;BME280;40636;52.424;-1.948;2022-09-24T08:27:36;100174.13;;;10.94;81.76
43364;BME280;40636;52.424;-1.948;2022-09-24T08:30:04;100178.44;;;10.90;82.44
43364;BME280;40636;52.424;-1.948;2022-09-24T08:32:31;100167.28;;;10.80;81.05
43364;BME280;40636;52.424;-1.948;2022-09-24T08:34:58;100171.59;;;10.76;81.40
43364;BME280;40636;52.424;-1.948;2022-09-24T08:37:26;100169.94;;;10.75;81.43
43364;BME280;40636;52.424;-1.948;2022-09-24T08:39:53;100163.47;;;10.81;80.47
43364;BME280;40636;52.424;-1.948;2022-09-24T08:45:05;100175.47;;;10.91;80.73
43364;BME280;40636;52.424;-1.948;2022-09-24T08:48:00;100167.81;;;10.93;80.01
43364;BME280;40636;52.424;-1.948;2022-09-24T08:50:33;100183.63;;;11.03;80.84
43364;BME280;40636;52.424;-1.948;2022-09-24T08:53:11;100175.00;;;11.11;80.30
43364;BME280;40636;52.424;-1.948;2022-09-24T08:55:51;100189.00;;;11.27;78.73
43364;BME280;40636;52.424;-1.948;2022-09-24T08:58:27;100187.00;;;11.39;78.59
43364;BME280;40636;52.424;-1.948;2022-09-24T09:02:01;100184.16;;;11.51;78.48
43364;BME280;40636;52.424;-1.948;2022-09-24T09:04:20;100189.66;;;11.67;76.22
43364;BME280;40636;52.424;-1.948;2022-09-24T09:09:20;100191.44;;;11.79;75.42
43364;BME280;40636;52.424;-1.948;2022-09-24T09:11:51;100197.72;;;11.91;75.15
43364;BME280;40636;52.424;-1.948;2022-09-24T09:14:32;100197.59;;;12.03;75.00
43364;BME280;40636;52.424;-1.948;2022-09-24T09:17:44;100194.59;;;12.04;73.32
43364;BME280;40636;52.424;-1.948;2022-09-24T09:20:27;100195.09;;;12.01;74.08
43364;BME280;40636;52.424;-1.948;2022-09-24T09:22:59;100205.00;;;12.02;73.35
43364;BME280;40636;52.424;-1.948;2022-09-24T09:25:34;100195.59;;;11.98;73.90
43364;BME280;40636;52.424;-1.948;2022-09-24T09:28:10;100203.00;;;11.81;73.33
43364;BME280;40636;52.424;-1.948;2022-09-24T09:36:26;100211.19;;;12.09;75.55
43364;BME280;40636;52.424;-1.948;2022-09-24T09:44:25;100208.59;;;12.03;74.56
43364;BME280;40636;52.424;-1.948;2022-09-24T09:47:03;100207.28;;;12.05;72.86
43364;BME280;40636;52.424;-1.948;2022-09-24T09:49:34;100208.75;;;12.13;74.18
43364;BME280;40636;52.424;-1.948;2022-09-24T09:52:20;100208.63;;;12.25;72.00
43364;BME280;40636;52.424;-1.948;2022-09-24T09:54:47;100209.00;;;12.33;70.63
43364;BME280;40636;52.424;-1.948;2022-09-24T09:57:17;100206.13;;;12.45;72.21
43364;BME280;40636;52.424;-1.948;2022-09-24T09:59:47;100212.25;;;12.52;70.28
43364;BME280;40636;52.424;-1.948;2022-09-24T10:02:28;100224.75;;;12.60;69.70
43364;BME280;40636;52.424;-1.948;2022-09-24T10:04:58;100217.97;;;12.67;70.22
43364;BME280;40636;52.424;-1.948;2022-09-24T10:07:26;100215.84;;;12.75;70.87
43364;BME280;40636;52.424;-1.948;2022-09-24T10:09:59;100218.03;;;12.73;68.67
43364;BME280;40636;52.424;-1.948;2022-09-24T10:12:27;100214.50;;;12.77;68.46
43364;BME280;40636;52.424;-1.948;2022-09-24T10:15:15;100216.47;;;12.82;66.96
43364;BME280;40636;52.424;-1.948;2022-09-24T10:17:44;100206.38;;;12.92;66.34
43364;BME280;40636;52.424;-1.948;2022-09-24T10:20:21;100207.03;;;13.00;66.53
43364;BME280;40636;52.424;-1.948;2022-09-24T10:22:51;100205.75;;;13.12;68.04
43364;BME280;40636;52.424;-1.948;2022-09-24T10:25:21;100215.16;;;13.16;66.65
43364;BME280;40636;52.424;-1.948;2022-09-24T10:27:55;100216.75;;;13.12;65.93
43364;BME280;40636;52.424;-1.948;2022-09-24T10:31:15;100211.13;;;12.97;65.73
43364;BME280;40636;52.424;-1.948;2022-09-24T10:33:46;100218.00;;;12.94;65.49
43364;BME280;40636;52.424;-1.948;2022-09-24T10:36:27;100210.38;;;13.07;66.20
43364;BME280;40636;52.424;-1.948;2022-09-24T10:39:11;100212.13;;;13.13;65.98
43364;BME280;40636;52.424;-1.948;2022-09-24T10:41:50;100216.84;;;13.17;66.23
43364;BME280;40636;52.424;-1.948;2022-09-24T10:44:19;100218.69;;;13.12;65.48
43364;BME280;40636;52.424;-1.948;2022-09-24T11:01:10;100222.59;;;13.43;67.48
43364;BME280;40636;52.424;-1.948;2022-09-24T11:14:30;100211.16;;;13.61;68.19
43364;BME280;40636;52.424;-1.948;2022-09-24T11:17:18;100209.06;;;13.74;66.40
43364;BME280;40636;52.424;-1.948;2022-09-24T11:20:10;100207.66;;;13.76;67.37
43364;BME280;40636;52.424;-1.948;2022-09-24T11:31:14;100206.97;;;13.91;66.08
43364;BME280;40636;52.424;-1.948;2022-09-24T11:42:21;100207.75;;;14.39;65.25
43364;BME280;40636;52.424;-1.948;2022-09-24T11:45:17;100201.28;;;14.70;65.93
43364;BME280;40636;52.424;-1.948;2022-09-24T11:50:29;100204.03;;;14.70;64.34
43364;BME280;40636;52.424;-1.948;2022-09-24T11:53:05;100204.00;;;14.60;64.11
43364;BME280;40636;52.424;-1.948;2022-09-24T11:55:48;100212.78;;;14.47;65.04
43364;BME280;40636;52.424;-1.948;2022-09-24T11:58:17;100206.13;;;14.43;64.49
43364;BME280;40636;52.424;-1.948;2022-09-24T12:00:57;100212.56;;;14.54;65.35
43364;BME280;40636;52.424;-1.948;2022-09-24T12:03:40;100221.41;;;14.56;65.16
43364;BME280;40636;52.424;-1.948;2022-09-24T12:06:18;100208.50;;;14.77;63.59
43364;BME280;40636;52.424;-1.948;2022-09-24T12:08:54;100208.50;;;14.77;64.61
43364;BME280;40636;52.424;-1.948;2022-09-24T12:11:33;100212.91;;;14.78;64.16
43364;BME280;40636;52.424;-1.948;2022-09-24T12:16:37;100210.75;;;15.00;64.57
43364;BME280;40636;52.424;-1.948;2022-09-24T12:19:21;100207.69;;;14.91;63.02
43364;BME280;40636;52.424;-1.948;2022-09-24T12:21:51;100216.75;;;14.71;64.17
43364;BME280;40636;52.424;-1.948;2022-09-24T12:24:37;100206.59;;;14.92;63.59
43364;BME280;40636;52.424;-1.948;2022-09-24T12:27:13;100211.88;;;15.04;64.42
43364;BME280;40636;52.424;-1.948;2022-09-24T12:33:28;100214.34;;;15.11;62.50
43364;BME280;40636;52.424;-1.948;2022-09-24T12:36:11;100210.53;;;15.32;62.86
43364;BME280;40636;52.424;-1.948;2022-09-24T12:38:44;100198.09;;;15.45;63.67
43364;BME280;40636;52.424;-1.948;2022-09-24T12:41:19;100200.84;;;15.50;63.27
43364;BME280;40636;52.424;-1.948;2022-09-24T12:43:59;100205.53;;;15.39;63.62
43364;BME280;40636;52.424;-1.948;2022-09-24T12:46:53;100210.81;;;15.36;64.33
43364;BME280;40636;52.424;-1.948;2022-09-24T12:51:56;100219.66;;;15.33;63.71
43364;BME280;40636;52.424;-1.948;2022-09-24T12:54:34;100222.41;;;15.33;64.37
43364;BME280;40636;52.424;-1.948;2022-09-24T12:57:14;100217.13;;;15.16;64.54
43364;BME280;40636;52.424;-1.948;2022-09-24T13:00:01;100223.47;;;15.06;64.62
43364;BME280;40636;52.424;-1.948;2022-09-24T13:02:50;100226.53;;;15.15;66.11
43364;BME280;40636;52.424;-1.948;2022-09-24T13:10:56;100219.34;;;15.19;67.11
43364;BME280;40636;52.424;-1.948;2022-09-24T13:13:29;100224.88;;;15.24;68.23
43364;BME280;40636;52.424;-1.948;2022-09-24T13:16:00;100235.34;;;15.07;66.86
43364;BME280;40636;52.424;-1.948;2022-09-24T13:18:30;100229.81;;;14.91;67.61
43364;BME280;40636;52.424;-1.948;2022-09-24T13:21:05;100225.13;;;14.97;68.91
43364;BME280;40636;52.424;-1.948;2022-09-24T13:28:53;100218.97;;;14.80;69.83
43364;BME280;40636;52.424;-1.948;2022-09-24T13:39:19;100228.06;;;14.65;70.39
43364;BME280;40636;52.424;-1.948;2022-09-24T13:41:59;100226.13;;;14.70;71.35
43364;BME280;40636;52.424;-1.948;2022-09-24T13:47:04;100234.41;;;14.60;72.75
43364;BME280;40636;52.424;-1.948;2022-09-24T13:49:37;100235.50;;;14.59;71.51
43364;BME280;40636;52.424;-1.948;2022-09-24T13:52:31;100228.66;;;14.72;71.19
43364;BME280;40636;52.424;-1.948;2022-09-24T13:55:05;100230.31;;;14.83;70.90
43364;BME280;40636;52.424;-1.948;2022-09-24T13:57:42;100226.22;;;14.91;70.59
43364;BME280;40636;52.424;-1.948;2022-09-24T14:02:59;100225.94;;;14.92;70.87
43364;BME280;40636;52.424;-1.948;2022-09-24T14:05:31;100224.56;;;15.00;70.60
43364;BME280;40636;52.424;-1.948;2022-09-24T14:08:04;100225.69;;;15.04;70.54
43364;BME280;40636;52.424;-1.948;2022-09-24T14:10:32;100224.56;;;14.90;69.83
43364;BME280;40636;52.424;-1.948;2022-09-24T14:15:35;100226.78;;;14.98;68.57
43364;BME280;40636;52.424;-1.948;2022-09-24T14:18:03;100222.88;;;14.89;69.48
43364;BME280;40636;52.424;-1.948;2022-09-24T14:20:34;100220.69;;;14.91;69.32
43364;BME280;40636;52.424;-1.948;2022-09-24T14:23:02;100227.59;;;14.93;70.22
43364;BME280;40636;52.424;-1.948;2022-09-24T14:25:32;100229.00;;;15.01;71.11
43364;BME280;40636;52.424;-1.948;2022-09-24T14:28:01;100222.94;;;14.99;70.81
43364;BME280;40636;52.424;-1.948;2022-09-24T14:30:30;100219.59;;;15.07;71.02
43364;BME280;40636;52.424;-1.948;2022-09-24T14:33:06;100218.75;;;14.96;71.17
43364;BME280;40636;52.424;-1.948;2022-09-24T14:35:38;100210.44;;;14.81;70.48
43364;BME280;40636;52.424;-1.948;2022-09-24T14:38:15;100213.44;;;14.75;71.45
43364;BME280;40636;52.424;-1.948;2022-09-24T14:41:18;100215.09;;;14.70;70.66
43364;BME280;40636;52.424;-1.948;2022-09-24T14:43:58;100225.59;;;14.68;71.27
43364;BME280;40636;52.424;-1.948;2022-09-24T14:46:30;100221.75;;;14.80;70.50
43364;BME280;40636;52.424;-1.948;2022-09-24T14:49:21;100230.09;;;14.90;70.05
43364;BME280;40636;52.424;-1.948;2022-09-24T14:51:58;100236.16;;;14.87;68.71
43364;BME280;40636;52.424;-1.948;2022-09-24T14:56:54;100225.13;;;15.12;67.63
43364;BME280;40636;52.424;-1.948;2022-09-24T14:59:29;100219.63;;;15.28;67.68
43364;BME280;40636;52.424;-1.948;2022-09-24T15:04:45;100229.00;;;15.06;66.89